sensor_id;sensor_type;location;lat;lon;timestamp;P1;durP1;ratioP1;P2;durP2;ratioP2
11887;SDS011;6003;42.756;23.130;2023-08-07T00:01:34;1.13;;;1.13;;
11887;SDS011;6003;42.756;23.130;2023-08-07T00:04:01;1.10;;;1.10;;
11887;SDS011;6003;42.756;23.130;2023-08-07T00:06:27;1.30;;;1.20;;
11887;SDS011;6003;42.756;23.130;2023-08-07T00:08:55;1.00;;;1.00;;
11887;SDS011;6003;42.756;23.130;2023-08-07T00:11:22;1.30;;;1.20;;
11887;SDS011;6003;42.756;23.130;2023-08-07T00:13:49;1.27;;;1.17;;
11887;SDS011;6003;42.756;23.130;2023-08-07T00:16:16;1.20;;;1.20;;
11887;SDS011;6003;42.756;23.130;2023-08-07T00:18:43;1.10;;;1.10;;
11887;SDS011;6003;42.756;23.130;2023-08-07T00:21:09;1.23;;;1.13;;
11887;SDS011;6003;42.756;23.130;2023-08-07T00:23:37;1.30;;;1.30;;
11887;SDS011;6003;42.756;23.130;2023-08-07T00:26:05;1.10;;;1.10;;
11887;SDS011;6003;42.756;23.130;2023-08-07T00:28:32;1.30;;;1.30;;
11887;SDS011;6003;42.756;23.130;2023-08-07T00:30:58;1.37;;;1.33;;
11887;SDS011;6003;42.756;23.130;2023-08-07T00:33:25;2.33;;;1.60;;
11887;SDS011;6003;42.756;23.130;2023-08-07T00:35:52;1.70;;;1.60;;
11887;SDS011;6003;42.756;23.130;2023-08-07T00:38:19;1.40;;;1.30;;
11887;SDS011;6003;42.756;23.130;2023-08-07T00:40:46;1.43;;;1.40;;
11887;SDS011;6003;42.756;23.130;2023-08-07T00:43:14;1.60;;;1.50;;
11887;SDS011;6003;42.756;23.130;2023-08-07T00:45:41;1.60;;;1.60;;
11887;SDS011;6003;42.756;23.130;2023-08-07T00:48:09;1.67;;;1.40;;
11887;SDS011;6003;42.756;23.130;2023-08-07T00:50:37;1.97;;;1.87;;
11887;SDS011;6003;42.756;23.130;2023-08-07T00:53:05;1.73;;;1.63;;
11887;SDS011;6003;42.756;23.130;2023-08-07T00:55:33;1.93;;;1.83;;
11887;SDS011;6003;42.756;23.130;2023-08-07T00:58:00;1.97;;;1.87;;
11887;SDS011;6003;42.756;23.130;2023-08-07T01:00:28;2.00;;;1.90;;
11887;SDS011;6003;42.756;23.130;2023-08-07T01:02:56;2.03;;;1.93;;
11887;SDS011;6003;42.756;23.130;2023-08-07T01:05:23;2.43;;;2.30;;
11887;SDS011;6003;42.756;23.130;2023-08-07T01:07:50;2.00;;;1.90;;
11887;SDS011;6003;42.756;23.130;2023-08-07T01:10:21;2.20;;;2.10;;
11887;SDS011;6003;42.756;23.130;2023-08-07T01:13:12;2.00;;;1.90;;
11887;SDS011;6003;42.756;23.130;2023-08-07T01:15:46;2.47;;;2.27;;
11887;SDS011;6003;42.756;23.130;2023-08-07T01:18:17;2.37;;;2.13;;
11887;SDS011;6003;42.756;23.130;2023-08-07T01:20:44;2.30;;;2.20;;
11887;SDS011;6003;42.756;23.130;2023-08-07T01:23:12;2.13;;;2.03;;
11887;SDS011;6003;42.756;23.130;2023-08-07T01:25:39;2.17;;;2.07;;
11887;SDS011;6003;42.756;23.130;2023-08-07T01:28:08;2.23;;;2.13;;
11887;SDS011;6003;42.756;23.130;2023-08-07T01:30:42;2.40;;;2.20;;
11887;SDS011;6003;42.756;23.130;2023-08-07T01:33:21;2.20;;;2.10;;
11887;SDS011;6003;42.756;23.130;2023-08-07T01:35:55;2.13;;;2.03;;
11887;SDS011;6003;42.756;23.130;2023-08-07T01:38:26;4.20;;;2.30;;
11887;SDS011;6003;42.756;23.130;2023-08-07T01:40:54;2.30;;;2.20;;
11887;SDS011;6003;42.756;23.130;2023-08-07T01:43:23;1.80;;;1.70;;
11887;SDS011;6003;42.756;23.130;2023-08-07T01:45:50;2.30;;;2.20;;
11887;SDS011;6003;42.756;23.130;2023-08-07T01:48:17;2.00;;;1.90;;
11887;SDS011;6003;42.756;23.130;2023-08-07T01:50:43;2.73;;;2.20;;
11887;SDS011;6003;42.756;23.130;2023-08-07T01:53:10;2.30;;;2.20;;
11887;SDS011;6003;42.756;23.130;2023-08-07T01:55:38;2.33;;;2.23;;
11887;SDS011;6003;42.756;23.130;2023-08-07T01:58:05;2.47;;;2.37;;
11887;SDS011;6003;42.756;23.130;2023-08-07T02:00:32;2.80;;;2.60;;
11887;SDS011;6003;42.756;23.130;2023-08-07T02:02:59;2.60;;;2.40;;
11887;SDS011;6003;42.756;23.130;2023-08-07T02:05:26;2.60;;;2.40;;
11887;SDS011;6003;42.756;23.130;2023-08-07T02:07:52;2.50;;;2.30;;
11887;SDS011;6003;42.756;23.130;2023-08-07T02:10:21;2.90;;;2.70;;
11887;SDS011;6003;42.756;23.130;2023-08-07T02:12:50;3.07;;;2.87;;
11887;SDS011;6003;42.756;23.130;2023-08-07T02:15:16;2.87;;;2.67;;
11887;SDS011;6003;42.756;23.130;2023-08-07T02:17:43;2.73;;;2.53;;
11887;SDS011;6003;42.756;23.130;2023-08-07T02:20:10;2.63;;;2.43;;
11887;SDS011;6003;42.756;23.130;2023-08-07T02:22:37;2.93;;;2.73;;
11887;SDS011;6003;42.756;23.130;2023-08-07T02:25:04;2.73;;;2.53;;
11887;SDS011;6003;42.756;23.130;2023-08-07T02:27:32;3.57;;;2.77;;
11887;SDS011;6003;42.756;23.130;2023-08-07T02:30:00;2.97;;;2.77;;
11887;SDS011;6003;42.756;23.130;2023-08-07T02:32:28;2.90;;;2.70;;
11887;SDS011;6003;42.756;23.130;2023-08-07T02:34:55;2.43;;;2.27;;
11887;SDS011;6003;42.756;23.130;2023-08-07T02:37:22;3.00;;;2.80;;
11887;SDS011;6003;42.756;23.130;2023-08-07T02:39:49;2.57;;;2.37;;
11887;SDS011;6003;42.756;23.130;2023-08-07T02:42:15;2.70;;;2.50;;
11887;SDS011;6003;42.756;23.130;2023-08-07T02:44:42;3.33;;;2.30;;
11887;SDS011;6003;42.756;23.130;2023-08-07T02:47:10;3.57;;;2.63;;
11887;SDS011;6003;42.756;23.130;2023-08-07T02:49:37;2.57;;;2.30;;
11887;SDS011;6003;42.756;23.130;2023-08-07T02:52:04;2.70;;;2.50;;
11887;SDS011;6003;42.756;23.130;2023-08-07T02:54:31;2.67;;;2.47;;
11887;SDS011;6003;42.756;23.130;2023-08-07T02:56:58;2.67;;;2.50;;
11887;SDS011;6003;42.756;23.130;2023-08-07T02:59:24;2.80;;;2.60;;
11887;SDS011;6003;42.756;23.130;2023-08-07T03:01:51;2.80;;;2.60;;
11887;SDS011;6003;42.756;23.130;2023-08-07T03:04:19;2.70;;;2.50;;
11887;SDS011;6003;42.756;23.130;2023-08-07T03:06:46;2.67;;;2.47;;
11887;SDS011;6003;42.756;23.130;2023-08-07T03:09:13;6.13;;;2.47;;
11887;SDS011;6003;42.756;23.130;2023-08-07T03:11:40;3.90;;;2.57;;
11887;SDS011;6003;42.756;23.130;2023-08-07T03:14:06;2.50;;;2.40;;
11887;SDS011;6003;42.756;23.130;2023-08-07T03:16:33;2.63;;;2.50;;
11887;SDS011;6003;42.756;23.130;2023-08-07T03:19:00;2.27;;;2.13;;
11887;SDS011;6003;42.756;23.130;2023-08-07T03:21:28;2.17;;;2.07;;
11887;SDS011;6003;42.756;23.130;2023-08-07T03:23:55;2.43;;;2.23;;
11887;SDS011;6003;42.756;23.130;2023-08-07T03:26:22;2.30;;;2.20;;
11887;SDS011;6003;42.756;23.130;2023-08-07T03:28:49;3.80;;;2.27;;
11887;SDS011;6003;42.756;23.130;2023-08-07T03:31:16;2.33;;;2.17;;
11887;SDS011;6003;42.756;23.130;2023-08-07T03:33:43;2.40;;;2.20;;
11887;SDS011;6003;42.756;23.130;2023-08-07T03:36:09;2.20;;;2.10;;
11887;SDS011;6003;42.756;23.130;2023-08-07T03:38:37;2.10;;;2.00;;
11887;SDS011;6003;42.756;23.130;2023-08-07T03:41:04;2.40;;;2.30;;
11887;SDS011;6003;42.756;23.130;2023-08-07T03:43:31;2.43;;;2.20;;
11887;SDS011;6003;42.756;23.130;2023-08-07T03:45:58;2.57;;;2.37;;
11887;SDS011;6003;42.756;23.130;2023-08-07T03:48:25;2.47;;;2.27;;
11887;SDS011;6003;42.756;23.130;2023-08-07T03:50:51;2.80;;;2.60;;
11887;SDS011;6003;42.756;23.130;2023-08-07T03:53:18;2.70;;;2.50;;
11887;SDS011;6003;42.756;23.130;2023-08-07T03:55:50;2.20;;;2.10;;
11887;SDS011;6003;42.756;23.130;2023-08-07T03:58:17;2.03;;;1.93;;
11887;SDS011;6003;42.756;23.130;2023-08-07T04:00:44;2.33;;;2.20;;
11887;SDS011;6003;42.756;23.130;2023-08-07T04:03:10;2.60;;;2.40;;
11887;SDS011;6003;42.756;23.130;2023-08-07T04:05:37;2.60;;;2.40;;
11887;SDS011;6003;42.756;23.130;2023-08-07T04:08:04;2.60;;;2.40;;
11887;SDS011;6003;42.756;23.130;2023-08-07T04:10:31;2.27;;;2.17;;
11887;SDS011;6003;42.756;23.130;2023-08-07T04:12:59;2.57;;;2.37;;
11887;SDS011;6003;42.756;23.130;2023-08-07T04:15:26;2.53;;;2.30;;
11887;SDS011;6003;42.756;23.130;2023-08-07T04:17:53;2.60;;;2.40;;
11887;SDS011;6003;42.756;23.130;2023-08-07T04:20:19;2.67;;;2.47;;
11887;SDS011;6003;42.756;23.130;2023-08-07T04:22:46;2.10;;;2.00;;
11887;SDS011;6003;42.756;23.130;2023-08-07T04:25:13;2.17;;;2.07;;
11887;SDS011;6003;42.756;23.130;2023-08-07T04:27:40;2.33;;;2.13;;
11887;SDS011;6003;42.756;23.130;2023-08-07T04:30:09;2.40;;;2.30;;
11887;SDS011;6003;42.756;23.130;2023-08-07T04:32:36;2.73;;;2.57;;
11887;SDS011;6003;42.756;23.130;2023-08-07T04:35:03;2.60;;;2.40;;
11887;SDS011;6003;42.756;23.130;2023-08-07T04:37:31;2.43;;;2.33;;
11887;SDS011;6003;42.756;23.130;2023-08-07T04:39:57;3.23;;;2.37;;
11887;SDS011;6003;42.756;23.130;2023-08-07T04:42:25;2.70;;;2.50;;
11887;SDS011;6003;42.756;23.130;2023-08-07T04:44:52;2.50;;;2.30;;
11887;SDS011;6003;42.756;23.130;2023-08-07T04:47:20;3.33;;;3.00;;
11887;SDS011;6003;42.756;23.130;2023-08-07T04:49:47;3.20;;;2.93;;
11887;SDS011;6003;42.756;23.130;2023-08-07T04:52:14;2.63;;;2.47;;
11887;SDS011;6003;42.756;23.130;2023-08-07T04:54:41;2.00;;;1.90;;
11887;SDS011;6003;42.756;23.130;2023-08-07T04:57:07;2.10;;;2.00;;
11887;SDS011;6003;42.756;23.130;2023-08-07T04:59:34;1.40;;;1.40;;
11887;SDS011;6003;42.756;23.130;2023-08-07T05:02:01;1.77;;;1.70;;
11887;SDS011;6003;42.756;23.130;2023-08-07T05:04:30;1.20;;;1.20;;
11887;SDS011;6003;42.756;23.130;2023-08-07T05:06:56;1.60;;;1.60;;
11887;SDS011;6003;42.756;23.130;2023-08-07T05:09:23;1.50;;;1.50;;
11887;SDS011;6003;42.756;23.130;2023-08-07T05:11:50;1.20;;;1.20;;
11887;SDS011;6003;42.756;23.130;2023-08-07T05:14:17;1.43;;;1.43;;
11887;SDS011;6003;42.756;23.130;2023-08-07T05:29:20;0.98;;;0.98;;
11887;SDS011;6003;42.756;23.130;2023-08-07T05:31:47;1.60;;;1.60;;
11887;SDS011;6003;42.756;23.130;2023-08-07T05:34:13;1.23;;;1.23;;
11887;SDS011;6003;42.756;23.130;2023-08-07T05:36:40;1.20;;;1.20;;
11887;SDS011;6003;42.756;23.130;2023-08-07T05:39:07;1.37;;;1.37;;
11887;SDS011;6003;42.756;23.130;2023-08-07T05:41:34;1.27;;;1.27;;
11887;SDS011;6003;42.756;23.130;2023-08-07T05:44:03;1.40;;;1.40;;
11887;SDS011;6003;42.756;23.130;2023-08-07T05:46:32;1.30;;;1.30;;
11887;SDS011;6003;42.756;23.130;2023-08-07T05:48:59;1.63;;;1.53;;
11887;SDS011;6003;42.756;23.130;2023-08-07T05:51:25;1.27;;;1.23;;
11887;SDS011;6003;42.756;23.130;2023-08-07T05:53:52;1.17;;;1.17;;
11887;SDS011;6003;42.756;23.130;2023-08-07T05:56:19;1.17;;;1.17;;
11887;SDS011;6003;42.756;23.130;2023-08-07T05:58:46;1.27;;;1.27;;
11887;SDS011;6003;42.756;23.130;2023-08-07T06:01:13;1.37;;;1.37;;
11887;SDS011;6003;42.756;23.130;2023-08-07T06:03:43;1.50;;;1.40;;
11887;SDS011;6003;42.756;23.130;2023-08-07T06:06:10;1.33;;;1.33;;
11887;SDS011;6003;42.756;23.130;2023-08-07T06:08:37;2.70;;;2.50;;
11887;SDS011;6003;42.756;23.130;2023-08-07T06:11:03;1.85;;;1.75;;
11887;SDS011;6003;42.756;23.130;2023-08-07T06:13:33;1.42;;;1.40;;
11887;SDS011;6003;42.756;23.130;2023-08-07T06:16:00;1.25;;;1.23;;
11887;SDS011;6003;42.756;23.130;2023-08-07T06:18:27;1.20;;;1.20;;
11887;SDS011;6003;42.756;23.130;2023-08-07T06:20:57;1.10;;;1.10;;
11887;SDS011;6003;42.756;23.130;2023-08-07T06:23:23;1.07;;;1.07;;
11887;SDS011;6003;42.756;23.130;2023-08-07T06:25:50;1.88;;;1.23;;
11887;SDS011;6003;42.756;23.130;2023-08-07T06:28:17;1.00;;;1.00;;
11887;SDS011;6003;42.756;23.130;2023-08-07T06:30:44;1.40;;;1.33;;
11887;SDS011;6003;42.756;23.130;2023-08-07T06:33:11;1.03;;;1.03;;
11887;SDS011;6003;42.756;23.130;2023-08-07T06:35:38;1.10;;;1.10;;
11887;SDS011;6003;42.756;23.130;2023-08-07T06:38:06;0.70;;;0.70;;
11887;SDS011;6003;42.756;23.130;2023-08-07T06:40:34;0.80;;;0.80;;
11887;SDS011;6003;42.756;23.130;2023-08-07T06:43:01;0.80;;;0.80;;
11887;SDS011;6003;42.756;23.130;2023-08-07T06:45:28;1.00;;;0.97;;
11887;SDS011;6003;42.756;23.130;2023-08-07T06:47:55;0.93;;;0.93;;
11887;SDS011;6003;42.756;23.130;2023-08-07T06:50:22;0.87;;;0.87;;
11887;SDS011;6003;42.756;23.130;2023-08-07T06:52:50;0.93;;;0.90;;
11887;SDS011;6003;42.756;23.130;2023-08-07T06:55:19;0.90;;;0.90;;
11887;SDS011;6003;42.756;23.130;2023-08-07T06:57:45;1.00;;;1.00;;
11887;SDS011;6003;42.756;23.130;2023-08-07T07:00:12;0.70;;;0.70;;
11887;SDS011;6003;42.756;23.130;2023-08-07T07:02:40;0.90;;;0.90;;
11887;SDS011;6003;42.756;23.130;2023-08-07T07:05:07;0.90;;;0.90;;
11887;SDS011;6003;42.756;23.130;2023-08-07T07:07:34;0.80;;;0.80;;
11887;SDS011;6003;42.756;23.130;2023-08-07T07:10:01;0.70;;;0.70;;
11887;SDS011;6003;42.756;23.130;2023-08-07T07:12:29;0.90;;;0.90;;
11887;SDS011;6003;42.756;23.130;2023-08-07T07:14:56;0.70;;;0.70;;
11887;SDS011;6003;42.756;23.130;2023-08-07T07:17:23;0.80;;;0.80;;
11887;SDS011;6003;42.756;23.130;2023-08-07T07:19:49;0.80;;;0.80;;
11887;SDS011;6003;42.756;23.130;2023-08-07T07:22:16;0.80;;;0.80;;
11887;SDS011;6003;42.756;23.130;2023-08-07T07:24:43;0.90;;;0.90;;
11887;SDS011;6003;42.756;23.130;2023-08-07T07:27:10;0.70;;;0.70;;
11887;SDS011;6003;42.756;23.130;2023-08-07T07:29:38;0.90;;;0.90;;
11887;SDS011;6003;42.756;23.130;2023-08-07T07:32:06;1.00;;;0.90;;
11887;SDS011;6003;42.756;23.130;2023-08-07T07:34:33;0.83;;;0.83;;
11887;SDS011;6003;42.756;23.130;2023-08-07T07:37:00;0.87;;;0.87;;
11887;SDS011;6003;42.756;23.130;2023-08-07T07:39:27;0.80;;;0.80;;
11887;SDS011;6003;42.756;23.130;2023-08-07T07:41:55;0.90;;;0.90;;
11887;SDS011;6003;42.756;23.130;2023-08-07T07:44:22;1.33;;;0.90;;
11887;SDS011;6003;42.756;23.130;2023-08-07T07:46:50;0.83;;;0.83;;
11887;SDS011;6003;42.756;23.130;2023-08-07T07:49:17;0.80;;;0.80;;
11887;SDS011;6003;42.756;23.130;2023-08-07T07:51:44;0.90;;;0.90;;
11887;SDS011;6003;42.756;23.130;2023-08-07T07:54:11;0.83;;;0.83;;
11887;SDS011;6003;42.756;23.130;2023-08-07T07:56:38;0.90;;;0.90;;
11887;SDS011;6003;42.756;23.130;2023-08-07T07:59:05;0.90;;;0.90;;
11887;SDS011;6003;42.756;23.130;2023-08-07T08:01:34;1.00;;;1.00;;
11887;SDS011;6003;42.756;23.130;2023-08-07T08:04:02;0.97;;;0.97;;
11887;SDS011;6003;42.756;23.130;2023-08-07T08:06:29;1.00;;;1.00;;
11887;SDS011;6003;42.756;23.130;2023-08-07T08:08:56;1.00;;;1.00;;
11887;SDS011;6003;42.756;23.130;2023-08-07T08:11:23;1.10;;;1.10;;
11887;SDS011;6003;42.756;23.130;2023-08-07T08:13:50;0.93;;;0.93;;
11887;SDS011;6003;42.756;23.130;2023-08-07T08:16:16;1.00;;;1.00;;
11887;SDS011;6003;42.756;23.130;2023-08-07T08:18:43;0.63;;;0.63;;
11887;SDS011;6003;42.756;23.130;2023-08-07T08:21:11;2.72;;;1.23;;
11887;SDS011;6003;42.756;23.130;2023-08-07T08:23:38;0.82;;;0.82;;
11887;SDS011;6003;42.756;23.130;2023-08-07T08:26:05;0.70;;;0.70;;
11887;SDS011;6003;42.756;23.130;2023-08-07T08:28:32;0.90;;;0.90;;
11887;SDS011;6003;42.756;23.130;2023-08-07T08:30:59;1.00;;;1.00;;
11887;SDS011;6003;42.756;23.130;2023-08-07T08:33:26;1.85;;;1.08;;
11887;SDS011;6003;42.756;23.130;2023-08-07T08:35:53;1.08;;;1.08;;
11887;SDS011;6003;42.756;23.130;2023-08-07T08:38:21;0.82;;;0.82;;
11887;SDS011;6003;42.756;23.130;2023-08-07T08:40:50;0.73;;;0.73;;
11887;SDS011;6003;42.756;23.130;2023-08-07T08:43:18;1.33;;;1.20;;
11887;SDS011;6003;42.756;23.130;2023-08-07T08:45:46;1.17;;;1.17;;
11887;SDS011;6003;42.756;23.130;2023-08-07T08:48:14;1.00;;;1.00;;
11887;SDS011;6003;42.756;23.130;2023-08-07T08:50:47;0.82;;;0.82;;
11887;SDS011;6003;42.756;23.130;2023-08-07T08:53:16;1.00;;;1.00;;
11887;SDS011;6003;42.756;23.130;2023-08-07T08:55:45;1.00;;;1.00;;
11887;SDS011;6003;42.756;23.130;2023-08-07T08:58:12;1.00;;;1.00;;
11887;SDS011;6003;42.756;23.130;2023-08-07T09:00:40;1.75;;;0.98;;
11887;SDS011;6003;42.756;23.130;2023-08-07T09:03:08;1.17;;;1.17;;
11887;SDS011;6003;42.756;23.130;2023-08-07T09:05:35;1.10;;;1.10;;
11887;SDS011;6003;42.756;23.130;2023-08-07T09:08:03;1.00;;;1.00;;
11887;SDS011;6003;42.756;23.130;2023-08-07T09:10:31;2.00;;;1.20;;
11887;SDS011;6003;42.756;23.130;2023-08-07T09:13:01;1.20;;;1.10;;
11887;SDS011;6003;42.756;23.130;2023-08-07T09:15:31;0.90;;;0.90;;
11887;SDS011;6003;42.756;23.130;2023-08-07T09:17:58;0.90;;;0.90;;
11887;SDS011;6003;42.756;23.130;2023-08-07T09:20:26;1.23;;;1.20;;
11887;SDS011;6003;42.756;23.130;2023-08-07T09:22:54;1.25;;;1.00;;
11887;SDS011;6003;42.756;23.130;2023-08-07T09:25:26;1.10;;;1.10;;
11887;SDS011;6003;42.756;23.130;2023-08-07T09:27:54;0.82;;;0.82;;
11887;SDS011;6003;42.756;23.130;2023-08-07T09:30:25;0.80;;;0.80;;
11887;SDS011;6003;42.756;23.130;2023-08-07T09:32:53;1.00;;;1.00;;
11887;SDS011;6003;42.756;23.130;2023-08-07T09:35:21;1.10;;;1.10;;
11887;SDS011;6003;42.756;23.130;2023-08-07T09:37:48;1.17;;;1.17;;
11887;SDS011;6003;42.756;23.130;2023-08-07T09:40:15;1.05;;;1.05;;
11887;SDS011;6003;42.756;23.130;2023-08-07T09:42:43;0.80;;;0.80;;
11887;SDS011;6003;42.756;23.130;2023-08-07T09:45:19;1.10;;;1.10;;
11887;SDS011;6003;42.756;23.130;2023-08-07T09:47:48;1.10;;;1.00;;
11887;SDS011;6003;42.756;23.130;2023-08-07T09:50:24;0.98;;;0.98;;
11887;SDS011;6003;42.756;23.130;2023-08-07T09:52:52;0.93;;;0.93;;
11887;SDS011;6003;42.756;23.130;2023-08-07T09:55:19;1.60;;;0.80;;
11887;SDS011;6003;42.756;23.130;2023-08-07T09:57:46;0.75;;;0.75;;
11887;SDS011;6003;42.756;23.130;2023-08-07T10:00:15;1.23;;;0.97;;
11887;SDS011;6003;42.756;23.130;2023-08-07T10:02:44;1.13;;;1.13;;
11887;SDS011;6003;42.756;23.130;2023-08-07T10:05:14;1.20;;;1.20;;
11887;SDS011;6003;42.756;23.130;2023-08-07T10:07:42;1.10;;;1.10;;
11887;SDS011;6003;42.756;23.130;2023-08-07T10:10:09;1.17;;;1.00;;
11887;SDS011;6003;42.756;23.130;2023-08-07T10:12:36;1.08;;;1.08;;
11887;SDS011;6003;42.756;23.130;2023-08-07T10:15:04;1.10;;;1.10;;
11887;SDS011;6003;42.756;23.130;2023-08-07T10:17:32;1.00;;;1.00;;
11887;SDS011;6003;42.756;23.130;2023-08-07T10:19:59;1.13;;;1.13;;
11887;SDS011;6003;42.756;23.130;2023-08-07T10:22:29;0.90;;;0.90;;
11887;SDS011;6003;42.756;23.130;2023-08-07T10:24:57;1.10;;;1.10;;
11887;SDS011;6003;42.756;23.130;2023-08-07T10:27:27;1.60;;;1.50;;
11887;SDS011;6003;42.756;23.130;2023-08-07T10:29:57;1.00;;;1.00;;
11887;SDS011;6003;42.756;23.130;2023-08-07T10:32:27;1.07;;;1.07;;
11887;SDS011;6003;42.756;23.130;2023-08-07T10:34:55;1.10;;;1.10;;
11887;SDS011;6003;42.756;23.130;2023-08-07T10:37:39;1.10;;;1.10;;
11887;SDS011;6003;42.756;23.130;2023-08-07T10:40:07;1.13;;;1.13;;
11887;SDS011;6003;42.756;23.130;2023-08-07T10:42:52;1.20;;;1.20;;
11887;SDS011;6003;42.756;23.130;2023-08-07T10:45:22;1.07;;;1.07;;
11887;SDS011;6003;42.756;23.130;2023-08-07T10:47:57;1.17;;;1.17;;
11887;SDS011;6003;42.756;23.130;2023-08-07T10:50:28;1.53;;;1.10;;
11887;SDS011;6003;42.756;23.130;2023-08-07T10:52:57;1.20;;;1.20;;
11887;SDS011;6003;42.756;23.130;2023-08-07T10:55:26;1.20;;;1.20;;
11887;SDS011;6003;42.756;23.130;2023-08-07T10:57:57;1.00;;;1.00;;
11887;SDS011;6003;42.756;23.130;2023-08-07T11:00:25;0.93;;;0.93;;
11887;SDS011;6003;42.756;23.130;2023-08-07T11:02:53;2.30;;;1.60;;
11887;SDS011;6003;42.756;23.130;2023-08-07T11:05:20;1.05;;;1.05;;
11887;SDS011;6003;42.756;23.130;2023-08-07T11:07:47;1.17;;;1.17;;
11887;SDS011;6003;42.756;23.130;2023-08-07T11:10:15;1.20;;;1.20;;
11887;SDS011;6003;42.756;23.130;2023-08-07T11:12:42;1.10;;;1.10;;
11887;SDS011;6003;42.756;23.130;2023-08-07T11:15:11;1.00;;;1.00;;
11887;SDS011;6003;42.756;23.130;2023-08-07T11:17:39;0.90;;;0.90;;
11887;SDS011;6003;42.756;23.130;2023-08-07T11:20:07;0.90;;;0.90;;
11887;SDS011;6003;42.756;23.130;2023-08-07T11:22:37;1.10;;;1.10;;
11887;SDS011;6003;42.756;23.130;2023-08-07T11:25:05;1.10;;;1.10;;
11887;SDS011;6003;42.756;23.130;2023-08-07T11:27:40;1.02;;;1.02;;
11887;SDS011;6003;42.756;23.130;2023-08-07T11:30:10;1.17;;;1.17;;
11887;SDS011;6003;42.756;23.130;2023-08-07T11:32:38;1.00;;;1.00;;
11887;SDS011;6003;42.756;23.130;2023-08-07T11:35:06;1.05;;;1.05;;
11887;SDS011;6003;42.756;23.130;2023-08-07T11:37:33;1.23;;;1.23;;
11887;SDS011;6003;42.756;23.130;2023-08-07T11:40:01;1.10;;;1.10;;
11887;SDS011;6003;42.756;23.130;2023-08-07T11:42:28;0.93;;;0.93;;
11887;SDS011;6003;42.756;23.130;2023-08-07T11:44:56;1.20;;;1.20;;
11887;SDS011;6003;42.756;23.130;2023-08-07T11:47:23;1.00;;;1.00;;
11887;SDS011;6003;42.756;23.130;2023-08-07T11:49:51;1.00;;;1.00;;
11887;SDS011;6003;42.756;23.130;2023-08-07T11:52:18;1.08;;;1.08;;
11887;SDS011;6003;42.756;23.130;2023-08-07T11:54:46;3.10;;;1.30;;
11887;SDS011;6003;42.756;23.130;2023-08-07T11:57:15;1.20;;;1.20;;
11887;SDS011;6003;42.756;23.130;2023-08-07T11:59:42;1.00;;;1.00;;
11887;SDS011;6003;42.756;23.130;2023-08-07T12:02:14;1.33;;;1.17;;
11887;SDS011;6003;42.756;23.130;2023-08-07T12:04:41;1.17;;;1.17;;
11887;SDS011;6003;42.756;23.130;2023-08-07T12:07:08;1.00;;;1.00;;
11887;SDS011;6003;42.756;23.130;2023-08-07T12:09:36;1.40;;;1.30;;
11887;SDS011;6003;42.756;23.130;2023-08-07T12:12:03;1.27;;;1.27;;
11887;SDS011;6003;42.756;23.130;2023-08-07T12:14:30;1.10;;;1.10;;
11887;SDS011;6003;42.756;23.130;2023-08-07T12:17:00;1.38;;;1.30;;
11887;SDS011;6003;42.756;23.130;2023-08-07T12:19:36;1.40;;;1.30;;
11887;SDS011;6003;42.756;23.130;2023-08-07T12:22:05;1.10;;;1.10;;
11887;SDS011;6003;42.756;23.130;2023-08-07T12:24:34;1.20;;;1.20;;
11887;SDS011;6003;42.756;23.130;2023-08-07T12:27:02;1.00;;;1.00;;
11887;SDS011;6003;42.756;23.130;2023-08-07T12:29:29;1.20;;;1.20;;
11887;SDS011;6003;42.756;23.130;2023-08-07T12:31:55;1.55;;;1.45;;
11887;SDS011;6003;42.756;23.130;2023-08-07T12:34:24;1.08;;;1.08;;
11887;SDS011;6003;42.756;23.130;2023-08-07T12:36:53;1.20;;;1.20;;
11887;SDS011;6003;42.756;23.130;2023-08-07T12:39:19;1.60;;;1.50;;
11887;SDS011;6003;42.756;23.130;2023-08-07T12:41:47;1.17;;;1.17;;
11887;SDS011;6003;42.756;23.130;2023-08-07T12:44:14;3.50;;;1.20;;
11887;SDS011;6003;42.756;23.130;2023-08-07T12:46:42;1.10;;;1.10;;
11887;SDS011;6003;42.756;23.130;2023-08-07T12:49:09;1.20;;;1.10;;
11887;SDS011;6003;42.756;23.130;2023-08-07T12:51:35;0.90;;;0.90;;
11887;SDS011;6003;42.756;23.130;2023-08-07T12:54:04;1.10;;;1.10;;
11887;SDS011;6003;42.756;23.130;2023-08-07T12:56:30;1.27;;;1.27;;
11887;SDS011;6003;42.756;23.130;2023-08-07T12:58:57;1.10;;;1.07;;
11887;SDS011;6003;42.756;23.130;2023-08-07T13:01:24;1.37;;;1.37;;
11887;SDS011;6003;42.756;23.130;2023-08-07T13:03:51;1.20;;;1.20;;
11887;SDS011;6003;42.756;23.130;2023-08-07T13:06:18;1.17;;;1.17;;
11887;SDS011;6003;42.756;23.130;2023-08-07T13:08:45;1.20;;;1.20;;
11887;SDS011;6003;42.756;23.130;2023-08-07T13:11:14;1.00;;;1.00;;
11887;SDS011;6003;42.756;23.130;2023-08-07T13:13:40;1.10;;;1.00;;
11887;SDS011;6003;42.756;23.130;2023-08-07T13:16:07;1.20;;;1.10;;
11887;SDS011;6003;42.756;23.130;2023-08-07T13:18:34;1.57;;;1.20;;
11887;SDS011;6003;42.756;23.130;2023-08-07T13:21:01;1.30;;;1.20;;
11887;SDS011;6003;42.756;23.130;2023-08-07T13:23:28;1.40;;;1.30;;
11887;SDS011;6003;42.756;23.130;2023-08-07T13:25:54;1.40;;;1.30;;
11887;SDS011;6003;42.756;23.130;2023-08-07T13:28:23;1.40;;;1.30;;
11887;SDS011;6003;42.756;23.130;2023-08-07T13:30:50;1.50;;;1.40;;
11887;SDS011;6003;42.756;23.130;2023-08-07T13:33:19;1.20;;;1.20;;
11887;SDS011;6003;42.756;23.130;2023-08-07T13:35:46;1.97;;;1.30;;
11887;SDS011;6003;42.756;23.130;2023-08-07T13:38:13;1.20;;;1.20;;
11887;SDS011;6003;42.756;23.130;2023-08-07T13:40:40;1.17;;;1.13;;
11887;SDS011;6003;42.756;23.130;2023-08-07T13:43:09;1.10;;;1.10;;
11887;SDS011;6003;42.756;23.130;2023-08-07T13:45:37;1.30;;;1.30;;
11887;SDS011;6003;42.756;23.130;2023-08-07T13:48:04;1.10;;;1.10;;
11887;SDS011;6003;42.756;23.130;2023-08-07T13:50:34;1.03;;;1.03;;
11887;SDS011;6003;42.756;23.130;2023-08-07T13:53:02;1.10;;;1.10;;
11887;SDS011;6003;42.756;23.130;2023-08-07T13:55:29;1.30;;;1.30;;
11887;SDS011;6003;42.756;23.130;2023-08-07T13:57:56;1.80;;;1.30;;
11887;SDS011;6003;42.756;23.130;2023-08-07T14:00:23;1.10;;;1.10;;
11887;SDS011;6003;42.756;23.130;2023-08-07T14:02:54;2.03;;;1.20;;
11887;SDS011;6003;42.756;23.130;2023-08-07T14:05:21;1.00;;;1.00;;
11887;SDS011;6003;42.756;23.130;2023-08-07T14:07:48;1.00;;;1.00;;
11887;SDS011;6003;42.756;23.130;2023-08-07T14:10:15;1.00;;;1.00;;
11887;SDS011;6003;42.756;23.130;2023-08-07T14:12:42;1.10;;;1.10;;
11887;SDS011;6003;42.756;23.130;2023-08-07T14:15:09;0.90;;;0.90;;
11887;SDS011;6003;42.756;23.130;2023-08-07T14:17:37;1.10;;;1.10;;
11887;SDS011;6003;42.756;23.130;2023-08-07T14:20:06;0.90;;;0.90;;
11887;SDS011;6003;42.756;23.130;2023-08-07T14:22:35;1.20;;;1.20;;
11887;SDS011;6003;42.756;23.130;2023-08-07T14:25:03;1.10;;;1.10;;
11887;SDS011;6003;42.756;23.130;2023-08-07T14:27:31;1.20;;;1.20;;
11887;SDS011;6003;42.756;23.130;2023-08-07T14:29:58;1.10;;;1.10;;
11887;SDS011;6003;42.756;23.130;2023-08-07T14:32:25;1.33;;;1.10;;
11887;SDS011;6003;42.756;23.130;2023-08-07T14:34:52;2.10;;;1.10;;
11887;SDS011;6003;42.756;23.130;2023-08-07T14:37:20;1.13;;;1.13;;
11887;SDS011;6003;42.756;23.130;2023-08-07T14:39:47;3.20;;;1.17;;
11887;SDS011;6003;42.756;23.130;2023-08-07T14:42:14;1.13;;;1.13;;
11887;SDS011;6003;42.756;23.130;2023-08-07T14:44:41;1.37;;;0.93;;
11887;SDS011;6003;42.756;23.130;2023-08-07T14:47:08;0.87;;;0.87;;
11887;SDS011;6003;42.756;23.130;2023-08-07T14:49:34;1.20;;;1.20;;
11887;SDS011;6003;42.756;23.130;2023-08-07T14:52:01;1.13;;;1.13;;
11887;SDS011;6003;42.756;23.130;2023-08-07T14:54:30;1.10;;;1.10;;
11887;SDS011;6003;42.756;23.130;2023-08-07T14:56:57;1.40;;;1.30;;
11887;SDS011;6003;42.756;23.130;2023-08-07T14:59:24;1.40;;;1.30;;
11887;SDS011;6003;42.756;23.130;2023-08-07T15:01:51;1.17;;;1.17;;
11887;SDS011;6003;42.756;23.130;2023-08-07T15:04:18;1.10;;;1.10;;